Time;durP1;ratioP1;P1;durP2;ratioP2;P2;SDS_P1;SDS_P2;PMS_P1;PMS_P2;Temp;Humidity;BMP_temperature;BMP_pressure;BME280_temperature;BME280_humidity;BME280_pressure;Samples;Min_cycle;Max_cycle;Signal;HPM_P1;HPM_P2
2023/09/29 00:00:16;;;;;;;9.70;6.10;;;;;;;;;;5013949;28;20026;-74
2023/09/29 00:02:42;;;;;;;11.75;6.10;;;;;;;;;;5013898;28;20100;-74
2023/09/29 00:05:11;;;;;;;8.32;5.55;;;;;;;;;;5012376;28;20114;-74
2023/09/29 00:07:39;;;;;;;10.50;6.22;;;;;;;;;;5013706;28;20026;-74
2023/09/29 00:10:09;;;;;;;11.77;6.22;;;;;;;;;;5014033;28;20061;-74
2023/09/29 00:12:36;;;;;;;8.75;5.88;;;;;;;;;;5014062;28;20085;-73
2023/09/29 00:15:04;;;;;;;13.55;6.30;;;;;;;;;;5012141;28;20415;-73
2023/09/29 00:17:30;;;;;;;12.52;6.32;;;;;;;;;;5013648;28;20022;-73
2023/09/29 00:19:55;;;;;;;16.85;6.03;;;;;;;;;;5013787;28;20033;-73
2023/09/29 00:22:20;;;;;;;8.65;6.15;;;;;;;;;;5013577;28;20036;-73
2023/09/29 00:24:46;;;;;;;10.32;5.90;;;;;;;;;;5013506;28;20396;-73
2023/09/29 00:27:11;;;;;;;10.82;6.20;;;;;;;;;;5013380;28;20025;-74
2023/09/29 00:29:36;;;;;;;10.57;6.17;;;;;;;;;;5013226;28;20022;-74
2023/09/29 00:32:01;;;;;;;9.33;6.50;;;;;;;;;;5013513;28;20346;-74
2023/09/29 00:34:26;;;;;;;11.95;6.15;;;;;;;;;;5013679;28;20290;-74
2023/09/29 00:36:52;;;;;;;12.15;6.03;;;;;;;;;;5013386;28;20461;-74
2023/09/29 00:39:18;;;;;;;12.67;6.17;;;;;;;;;;5013297;28;20114;-74
2023/09/29 00:41:43;;;;;;;10.23;6.35;;;;;;;;;;5013283;28;20255;-74
2023/09/29 00:44:10;;;;;;;12.02;6.00;;;;;;;;;;5011956;28;20036;-73
2023/09/29 00:46:36;;;;;;;8.70;6.22;;;;;;;;;;5013081;28;20508;-74
2023/09/29 00:49:01;;;;;;;9.48;6.15;;;;;;;;;;5013510;28;20031;-74
2023/09/29 00:51:26;;;;;;;9.98;6.05;;;;;;;;;;5011895;28;20033;-74
2023/09/29 00:53:52;;;;;;;12.55;5.88;;;;;;;;;;5013392;28;20021;-74
2023/09/29 00:56:18;;;;;;;11.25;6.07;;;;;;;;;;5013420;28;20022;-74
2023/09/29 00:58:43;;;;;;;12.25;6.20;;;;;;;;;;5013023;28;20026;-74
2023/09/29 01:01:11;;;;;;;10.50;6.25;;;;;;;;;;5013247;28;20040;-74
2023/09/29 01:03:37;;;;;;;12.20;6.43;;;;;;;;;;5013126;28;20443;-74
2023/09/29 01:06:04;;;;;;;12.23;5.93;;;;;;;;;;5012964;28;20030;-74
2023/09/29 01:08:30;;;;;;;10.73;5.82;;;;;;;;;;5011655;28;20026;-74
2023/09/29 01:10:55;;;;;;;12.20;6.60;;;;;;;;;;5013045;28;20033;-74
2023/09/29 01:13:22;;;;;;;10.93;6.60;;;;;;;;;;5013316;28;20457;-74
2023/09/29 01:15:47;;;;;;;11.98;6.25;;;;;;;;;;5013218;28;20056;-74
2023/09/29 01:18:14;;;;;;;9.00;6.05;;;;;;;;;;5013040;28;20125;-74
2023/09/29 01:20:40;;;;;;;10.77;5.60;;;;;;;;;;5012874;28;20032;-74
2023/09/29 01:23:07;;;;;;;9.57;5.97;;;;;;;;;;5012961;28;20500;-73
2023/09/29 01:25:33;;;;;;;11.90;6.30;;;;;;;;;;5014153;28;20152;-73
2023/09/29 01:27:59;;;;;;;13.23;6.28;;;;;;;;;;5016736;28;20061;-74
2023/09/29 01:30:25;;;;;;;12.80;6.28;;;;;;;;;;5016643;28;20081;-74
2023/09/29 01:32:52;;;;;;;7.72;5.65;;;;;;;;;;5016918;28;20026;-74
2023/09/29 01:35:18;;;;;;;9.43;6.00;;;;;;;;;;5016620;28;20053;-73
2023/09/29 01:37:48;;;;;;;12.55;6.30;;;;;;;;;;5016618;28;20026;-74
2023/09/29 01:40:14;;;;;;;11.90;5.93;;;;;;;;;;5015249;28;20022;-74
2023/09/29 01:42:43;;;;;;;13.82;6.65;;;;;;;;;;5016006;28;20531;-74
2023/09/29 01:45:11;;;;;;;13.95;6.57;;;;;;;;;;5016682;28;20056;-74
2023/09/29 01:47:43;;;;;;;9.48;6.50;;;;;;;;;;5016282;28;20057;-74
2023/09/29 01:50:10;;;;;;;7.07;5.40;;;;;;;;;;5013500;28;20022;-75
2023/09/29 01:52:35;;;;;;;8.02;5.55;;;;;;;;;;5013747;28;20029;-75
2023/09/29 01:55:03;;;;;;;9.52;6.10;;;;;;;;;;5016513;28;20024;-74
2023/09/29 01:57:28;;;;;;;9.68;5.85;;;;;;;;;;5015251;28;20014;-75
2023/09/29 01:59:54;;;;;;;11.50;6.10;;;;;;;;;;5014027;28;20018;-75
2023/09/29 02:02:19;;;;;;;10.70;6.13;;;;;;;;;;5016083;28;20469;-75
2023/09/29 02:04:45;;;;;;;10.45;6.30;;;;;;;;;;5016308;28;20038;-72
2023/09/29 02:07:10;;;;;;;10.18;5.88;;;;;;;;;;5015959;28;20033;-74
2023/09/29 02:09:36;;;;;;;9.07;6.00;;;;;;;;;;5014731;28;20025;-74
2023/09/29 02:12:01;;;;;;;9.38;6.25;;;;;;;;;;5016498;28;20251;-72
2023/09/29 02:14:28;;;;;;;9.40;6.32;;;;;;;;;;5015903;28;20025;-74
2023/09/29 02:16:53;;;;;;;12.77;6.32;;;;;;;;;;5016102;28;20358;-73
2023/09/29 02:19:19;;;;;;;14.23;6.65;;;;;;;;;;5015973;28;20033;-74
2023/09/29 02:21:45;;;;;;;11.40;6.63;;;;;;;;;;5014458;28;20417;-73
2023/09/29 02:24:11;;;;;;;11.32;6.07;;;;;;;;;;5015885;28;20028;-73
2023/09/29 02:26:38;;;;;;;13.40;6.43;;;;;;;;;;5015859;28;20026;-73
2023/09/29 02:29:04;;;;;;;13.52;6.00;;;;;;;;;;5015478;28;20040;-74
2023/09/29 02:31:29;;;;;;;10.55;6.03;;;;;;;;;;5015889;28;20572;-74
2023/09/29 02:33:54;;;;;;;9.37;5.97;;;;;;;;;;5014214;28;20088;-74
2023/09/29 02:36:19;;;;;;;11.48;6.30;;;;;;;;;;5015558;28;20248;-75
2023/09/29 02:38:45;;;;;;;8.93;6.10;;;;;;;;;;5014729;28;20021;-74
2023/09/29 02:41:10;;;;;;;9.20;5.80;;;;;;;;;;5014124;28;20028;-74
2023/09/29 02:43:36;;;;;;;8.90;6.53;;;;;;;;;;5014580;28;20213;-74
2023/09/29 02:46:02;;;;;;;12.57;6.30;;;;;;;;;;5015249;28;20026;-74
2023/09/29 02:48:27;;;;;;;8.82;6.00;;;;;;;;;;5015242;28;20026;-72
2023/09/29 02:50:53;;;;;;;13.77;6.63;;;;;;;;;;5013895;28;20076;-73
2023/09/29 02:53:18;;;;;;;12.23;6.45;;;;;;;;;;5015198;28;20026;-74
2023/09/29 02:55:46;;;;;;;9.43;6.22;;;;;;;;;;5015175;28;20076;-74
2023/09/29 02:58:12;;;;;;;8.63;6.30;;;;;;;;;;5015093;28;20124;-74
2023/09/29 03:00:41;;;;;;;12.80;6.25;;;;;;;;;;5014909;28;20480;-74
2023/09/29 03:03:07;;;;;;;12.93;6.07;;;;;;;;;;5014860;28;20051;-73
2023/09/29 03:05:34;;;;;;;11.60;6.63;;;;;;;;;;5014939;28;20104;-75
2023/09/29 03:08:00;;;;;;;9.23;6.05;;;;;;;;;;5014852;28;20026;-74
2023/09/29 03:10:28;;;;;;;13.15;6.15;;;;;;;;;;5014839;28;20431;-74
2023/09/29 03:12:56;;;;;;;9.45;6.30;;;;;;;;;;5015046;28;20033;-74
2023/09/29 03:15:21;;;;;;;8.95;6.40;;;;;;;;;;5014794;28;20029;-73
2023/09/29 03:17:47;;;;;;;13.77;6.95;;;;;;;;;;5015032;28;20022;-74
2023/09/29 03:20:14;;;;;;;11.68;6.53;;;;;;;;;;5014828;28;20034;-74
2023/09/29 03:22:40;;;;;;;9.52;5.93;;;;;;;;;;5014634;28;20404;-74
2023/09/29 03:25:07;;;;;;;11.68;6.47;;;;;;;;;;5013329;28;20030;-74
2023/09/29 03:27:34;;;;;;;12.18;6.60;;;;;;;;;;5014455;28;20115;-74
2023/09/29 03:30:00;;;;;;;10.23;6.47;;;;;;;;;;5014250;28;20030;-72
2023/09/29 03:32:26;;;;;;;9.43;5.93;;;;;;;;;;5014505;28;20021;-74
2023/09/29 03:34:52;;;;;;;8.77;6.20;;;;;;;;;;5014379;28;20032;-73
2023/09/29 03:37:18;;;;;;;11.98;6.32;;;;;;;;;;5014392;28;20101;-74
2023/09/29 03:39:43;;;;;;;10.85;6.15;;;;;;;;;;5014323;28;20097;-75
2023/09/29 03:42:09;;;;;;;13.68;6.28;;;;;;;;;;5014550;28;20025;-74
2023/09/29 03:44:34;;;;;;;8.98;6.40;;;;;;;;;;5014321;28;20615;-73
2023/09/29 03:47:00;;;;;;;9.02;6.47;;;;;;;;;;5014290;28;20053;-73
2023/09/29 03:49:26;;;;;;;10.65;6.50;;;;;;;;;;5012954;28;20484;-73
2023/09/29 03:51:51;;;;;;;10.43;6.22;;;;;;;;;;5012821;28;20075;-73
2023/09/29 03:54:18;;;;;;;11.20;6.82;;;;;;;;;;5014232;28;20424;-73
2023/09/29 03:56:44;;;;;;;13.98;6.03;;;;;;;;;;5012636;28;20025;-73
2023/09/29 03:59:09;;;;;;;11.93;6.43;;;;;;;;;;5013990;28;20400;-74
2023/09/29 04:01:34;;;;;;;14.70;6.87;;;;;;;;;;5013811;28;20037;-73
2023/09/29 04:04:01;;;;;;;11.97;6.43;;;;;;;;;;5013852;28;20621;-73
2023/09/29 04:06:26;;;;;;;10.27;6.30;;;;;;;;;;5013649;28;20287;-73
2023/09/29 04:08:51;;;;;;;10.73;6.60;;;;;;;;;;5013918;28;20048;-74
2023/09/29 04:11:17;;;;;;;9.55;6.20;;;;;;;;;;5013251;28;20116;-74
2023/09/29 04:13:43;;;;;;;11.23;6.07;;;;;;;;;;5013808;28;20025;-74
2023/09/29 04:16:08;;;;;;;12.48;6.43;;;;;;;;;;5013615;28;20403;-74
2023/09/29 04:18:34;;;;;;;11.65;6.20;;;;;;;;;;5013581;28;20026;-74
2023/09/29 04:21:01;;;;;;;13.73;6.43;;;;;;;;;;5013733;28;20388;-74
2023/09/29 04:23:26;;;;;;;11.63;6.13;;;;;;;;;;5013397;28;20110;-74
2023/09/29 04:25:52;;;;;;;10.05;6.38;;;;;;;;;;5013061;28;20104;-74
2023/09/29 04:28:17;;;;;;;10.25;6.75;;;;;;;;;;5012959;28;20032;-74
2023/09/29 04:30:42;;;;;;;11.60;6.93;;;;;;;;;;5013495;28;20079;-74
2023/09/29 04:33:08;;;;;;;11.43;7.13;;;;;;;;;;5013456;28;20418;-71
2023/09/29 04:35:34;;;;;;;13.27;6.50;;;;;;;;;;5012988;28;20052;-73
2023/09/29 04:38:00;;;;;;;11.23;6.82;;;;;;;;;;5013097;28;20255;-74
2023/09/29 04:40:25;;;;;;;12.88;6.32;;;;;;;;;;5011724;28;20457;-73
2023/09/29 04:42:51;;;;;;;16.07;6.77;;;;;;;;;;5012039;28;20036;-73
2023/09/29 04:45:17;;;;;;;10.38;6.93;;;;;;;;;;5013064;28;20271;-73
2023/09/29 04:47:42;;;;;;;17.48;7.15;;;;;;;;;;5012678;28;20038;-73
2023/09/29 04:50:08;;;;;;;15.93;7.25;;;;;;;;;;5012959;28;20018;-74
2023/09/29 04:52:33;;;;;;;12.73;7.00;;;;;;;;;;5011622;28;20053;-73
2023/09/29 04:54:59;;;;;;;14.82;6.65;;;;;;;;;;5012790;28;20481;-73
2023/09/29 04:57:24;;;;;;;13.20;6.45;;;;;;;;;;5013112;28;20025;-73
2023/09/29 04:59:50;;;;;;;8.60;6.28;;;;;;;;;;5012696;28;20025;-73
2023/09/29 05:02:15;;;;;;;11.40;6.80;;;;;;;;;;5010499;28;20057;-73
2023/09/29 05:04:40;;;;;;;9.93;7.05;;;;;;;;;;5010450;28;20054;-73
2023/09/29 05:07:05;;;;;;;11.60;7.13;;;;;;;;;;5010307;28;20032;-73
2023/09/29 05:09:31;;;;;;;13.32;7.00;;;;;;;;;;5010763;28;20480;-72
2023/09/29 05:11:56;;;;;;;12.98;6.90;;;;;;;;;;5010990;28;20029;-74
2023/09/29 05:14:21;;;;;;;14.20;7.32;;;;;;;;;;5010943;28;20030;-73
2023/09/29 05:16:47;;;;;;;12.83;6.43;;;;;;;;;;5011981;28;20079;-74
2023/09/29 05:19:12;;;;;;;12.55;6.80;;;;;;;;;;5013138;28;20772;-73
2023/09/29 05:21:38;;;;;;;15.40;7.30;;;;;;;;;;5013695;28;20018;-73
2023/09/29 05:24:03;;;;;;;9.27;6.75;;;;;;;;;;5012918;28;20148;-73
2023/09/29 05:26:28;;;;;;;16.15;7.38;;;;;;;;;;5012915;28;20370;-72
2023/09/29 05:28:55;;;;;;;9.00;6.28;;;;;;;;;;5011429;28;20041;-72
2023/09/29 05:31:20;;;;;;;12.32;7.22;;;;;;;;;;5012841;28;20079;-72
2023/09/29 05:33:45;;;;;;;10.43;6.88;;;;;;;;;;5012724;28;20420;-72
2023/09/29 05:36:11;;;;;;;14.20;6.53;;;;;;;;;;5012411;28;20021;-72
2023/09/29 05:38:36;;;;;;;10.63;6.85;;;;;;;;;;5010295;28;20113;-72
2023/09/29 05:41:02;;;;;;;15.00;7.00;;;;;;;;;;5009764;28;20110;-72
2023/09/29 05:43:27;;;;;;;10.45;7.07;;;;;;;;;;5011182;28;20021;-72
2023/09/29 05:45:52;;;;;;;14.90;6.95;;;;;;;;;;5012322;28;20021;-72
2023/09/29 05:48:18;;;;;;;14.13;7.93;;;;;;;;;;5011416;28;20455;-72
2023/09/29 05:50:44;;;;;;;12.90;6.78;;;;;;;;;;5011693;28;20033;-71
2023/09/29 05:53:09;;;;;;;14.18;7.57;;;;;;;;;;5012885;28;20022;-71
2023/09/29 05:55:34;;;;;;;12.88;7.10;;;;;;;;;;5012499;28;20106;-73
2023/09/29 05:58:00;;;;;;;15.30;7.28;;;;;;;;;;5012501;28;20473;-73
2023/09/29 06:00:26;;;;;;;11.68;7.15;;;;;;;;;;5012589;28;20029;-73
2023/09/29 06:02:51;;;;;;;12.55;7.40;;;;;;;;;;5012457;28;20021;-72
2023/09/29 06:05:17;;;;;;;11.05;7.00;;;;;;;;;;5011827;28;20105;-73
2023/09/29 06:07:42;;;;;;;12.15;7.28;;;;;;;;;;5012394;28;20397;-73
2023/09/29 06:10:09;;;;;;;10.77;7.35;;;;;;;;;;5012020;28;20021;-73
2023/09/29 06:12:34;;;;;;;12.43;7.03;;;;;;;;;;5013565;28;20508;-73
2023/09/29 06:15:00;;;;;;;9.70;6.70;;;;;;;;;;5015913;28;20026;-73
2023/09/29 06:17:25;;;;;;;14.65;6.90;;;;;;;;;;5016086;28;20443;-73
2023/09/29 06:19:51;;;;;;;9.85;6.82;;;;;;;;;;5016016;28;20026;-74
2023/09/29 06:22:17;;;;;;;14.93;6.95;;;;;;;;;;5015143;28;20049;-73
2023/09/29 06:24:44;;;;;;;14.63;6.82;;;;;;;;;;5017580;28;20492;-75
2023/09/29 06:27:10;;;;;;;12.63;6.80;;;;;;;;;;5017594;28;20045;-73
2023/09/29 06:29:35;;;;;;;12.40;7.07;;;;;;;;;;5016719;28;20045;-74
2023/09/29 06:32:00;;;;;;;9.68;6.93;;;;;;;;;;5016530;28;20018;-75
2023/09/29 06:34:25;;;;;;;9.60;6.70;;;;;;;;;;5015699;28;20488;-74
2023/09/29 06:36:51;;;;;;;11.60;6.65;;;;;;;;;;5014079;28;20248;-73
2023/09/29 06:39:16;;;;;;;9.10;6.13;;;;;;;;;;5015773;28;20378;-73
2023/09/29 06:41:42;;;;;;;10.98;6.90;;;;;;;;;;5015319;28;20255;-73
2023/09/29 06:44:07;;;;;;;13.30;7.10;;;;;;;;;;5015456;28;20101;-73
2023/09/29 06:46:33;;;;;;;14.88;7.68;;;;;;;;;;5015630;28;20048;-75
2023/09/29 06:48:58;;;;;;;11.90;6.35;;;;;;;;;;5015645;28;20425;-74
2023/09/29 06:51:24;;;;;;;13.73;7.03;;;;;;;;;;5015326;28;20030;-78
2023/09/29 06:53:49;;;;;;;12.52;6.25;;;;;;;;;;5017173;28;20446;-77
2023/09/29 06:56:14;;;;;;;12.20;6.65;;;;;;;;;;5016913;28;20029;-73
2023/09/29 06:58:39;;;;;;;8.45;6.32;;;;;;;;;;5016342;28;20535;-74
2023/09/29 07:01:05;;;;;;;13.45;6.28;;;;;;;;;;5014919;28;20044;-74
2023/09/29 07:03:30;;;;;;;10.75;7.00;;;;;;;;;;5014904;28;20025;-73
2023/09/29 07:05:58;;;;;;;13.43;6.43;;;;;;;;;;5014107;28;20022;-73
2023/09/29 07:08:23;;;;;;;11.75;6.80;;;;;;;;;;5013712;28;20463;-73
2023/09/29 07:10:48;;;;;;;10.43;6.30;;;;;;;;;;5013805;28;20026;-73
2023/09/29 07:13:14;;;;;;;9.82;6.53;;;;;;;;;;5015194;28;20050;-73
2023/09/29 07:15:40;;;;;;;11.20;6.72;;;;;;;;;;5014859;28;20469;-72
2023/09/29 07:18:10;;;;;;;11.20;6.07;;;;;;;;;;5014805;28;20087;-72
2023/09/29 07:20:35;;;;;;;9.45;6.15;;;;;;;;;;5014732;28;20113;-73
2023/09/29 07:23:02;;;;;;;11.23;6.00;;;;;;;;;;5014408;28;20125;-72
2023/09/29 07:25:28;;;;;;;18.92;6.47;;;;;;;;;;5013378;28;20075;-72
2023/09/29 07:27:53;;;;;;;12.43;5.88;;;;;;;;;;5014442;28;20025;-72
2023/09/29 07:30:18;;;;;;;13.57;6.27;;;;;;;;;;5014464;28;20042;-73
2023/09/29 07:32:44;;;;;;;15.70;6.40;;;;;;;;;;5013138;28;20271;-72
2023/09/29 07:35:09;;;;;;;9.77;5.80;;;;;;;;;;5013289;28;20017;-73
2023/09/29 07:37:34;;;;;;;11.75;6.32;;;;;;;;;;5013028;28;20051;-73
2023/09/29 07:40:00;;;;;;;11.35;5.80;;;;;;;;;;5014211;28;20076;-74
2023/09/29 07:42:25;;;;;;;11.75;6.32;;;;;;;;;;5014473;28;20080;-73
2023/09/29 07:44:51;;;;;;;8.85;5.88;;;;;;;;;;5013355;28;20076;-72
2023/09/29 07:47:17;;;;;;;8.23;5.70;;;;;;;;;;5014181;28;20428;-72
2023/09/29 07:49:42;;;;;;;15.73;6.47;;;;;;;;;;5012954;28;20404;-73
2023/09/29 07:52:08;;;;;;;10.27;6.27;;;;;;;;;;5014333;28;20473;-73
2023/09/29 07:54:36;;;;;;;11.48;5.88;;;;;;;;;;5013890;28;20595;-72
2023/09/29 07:57:02;;;;;;;12.27;5.53;;;;;;;;;;5014659;28;20033;-73
2023/09/29 07:59:28;;;;;;;10.85;5.65;;;;;;;;;;5012938;28;20041;-73
2023/09/29 08:01:54;;;;;;;9.80;5.53;;;;;;;;;;5014040;28;20025;-75
2023/09/29 08:04:19;;;;;;;18.27;5.93;;;;;;;;;;5012718;28;20041;-74
2023/09/29 08:06:44;;;;;;;9.93;5.68;;;;;;;;;;5013640;28;20076;-75
2023/09/29 08:09:12;;;;;;;10.00;5.68;;;;;;;;;;5013690;28;20461;-74
2023/09/29 08:11:39;;;;;;;9.73;5.78;;;;;;;;;;5014069;28;20036;-76
2023/09/29 08:14:05;;;;;;;8.95;5.95;;;;;;;;;;5014742;28;20081;-76
2023/09/29 08:16:30;;;;;;;9.02;5.57;;;;;;;;;;5015570;28;20076;-77
2023/09/29 08:18:55;;;;;;;8.38;5.50;;;;;;;;;;5012137;28;20087;-75
2023/09/29 08:21:20;;;;;;;7.72;5.35;;;;;;;;;;5011998;28;20659;-74
2023/09/29 08:23:46;;;;;;;7.72;5.35;;;;;;;;;;5011497;28;20026;-75
2023/09/29 08:26:11;;;;;;;8.93;5.47;;;;;;;;;;5011443;28;20032;-76
2023/09/29 08:28:36;;;;;;;8.20;5.47;;;;;;;;;;5011313;28;20361;-75
2023/09/29 08:31:02;;;;;;;10.40;5.65;;;;;;;;;;5010874;28;20270;-75
2023/09/29 08:33:29;;;;;;;15.05;5.80;;;;;;;;;;5012166;28;20026;-75
2023/09/29 08:35:56;;;;;;;11.13;5.28;;;;;;;;;;5011294;28;20507;-75
2023/09/29 08:38:22;;;;;;;17.58;5.25;;;;;;;;;;5013327;28;20075;-75
2023/09/29 08:40:51;;;;;;;16.58;5.22;;;;;;;;;;5013380;28;20032;-75
2023/09/29 08:43:18;;;;;;;6.60;4.80;;;;;;;;;;5013697;28;20089;-75
2023/09/29 08:45:48;;;;;;;12.07;5.57;;;;;;;;;;5013361;28;20489;-75
2023/09/29 08:48:14;;;;;;;10.48;5.18;;;;;;;;;;5013365;28;20038;-75
2023/09/29 08:50:43;;;;;;;8.52;5.35;;;;;;;;;;5012806;28;20127;-75
2023/09/29 08:53:13;;;;;;;11.07;5.10;;;;;;;;;;5012214;28;20466;-75
2023/09/29 08:55:38;;;;;;;9.65;5.10;;;;;;;;;;5013154;28;20030;-75
2023/09/29 08:58:04;;;;;;;8.95;4.95;;;;;;;;;;5013251;28;20030;-75
2023/09/29 09:00:31;;;;;;;12.27;4.82;;;;;;;;;;5014088;28;20109;-75
2023/09/29 09:02:58;;;;;;;8.98;4.88;;;;;;;;;;5013168;28;20109;-75
2023/09/29 09:05:23;;;;;;;7.07;4.88;;;;;;;;;;5013393;28;20026;-75
2023/09/29 09:07:50;;;;;;;8.63;4.80;;;;;;;;;;5011661;28;20400;-75
2023/09/29 09:10:15;;;;;;;12.60;4.93;;;;;;;;;;5013086;28;20042;-75
2023/09/29 09:12:41;;;;;;;10.25;5.05;;;;;;;;;;5013114;28;20033;-75
2023/09/29 09:15:08;;;;;;;8.48;4.50;;;;;;;;;;5013315;28;20079;-75
2023/09/29 09:17:34;;;;;;;9.73;4.70;;;;;;;;;;5012979;28;20054;-75
2023/09/29 09:20:01;;;;;;;10.93;4.70;;;;;;;;;;5013163;28;20050;-74
2023/09/29 09:22:31;;;;;;;7.10;4.63;;;;;;;;;;5013244;28;20092;-75
2023/09/29 09:25:04;;;;;;;11.15;5.00;;;;;;;;;;5013426;28;20028;-75
2023/09/29 09:27:37;;;;;;;11.25;4.72;;;;;;;;;;5011591;28;20060;-75
2023/09/29 09:30:03;;;;;;;9.15;4.30;;;;;;;;;;5011535;28;20041;-75
2023/09/29 09:32:28;;;;;;;8.73;4.57;;;;;;;;;;5012887;28;20034;-75
2023/09/29 09:34:54;;;;;;;6.93;4.93;;;;;;;;;;5012875;28;20029;-74
2023/09/29 09:37:29;;;;;;;10.73;4.85;;;;;;;;;;5013168;28;20251;-74
2023/09/29 09:39:55;;;;;;;11.27;4.47;;;;;;;;;;5012956;28;20033;-74
2023/09/29 09:42:25;;;;;;;12.30;4.72;;;;;;;;;;5012862;28;20025;-73
2023/09/29 09:44:53;;;;;;;7.18;4.45;;;;;;;;;;5012478;28;20350;-73
2023/09/29 09:47:19;;;;;;;8.57;3.97;;;;;;;;;;5015373;28;20044;-73
2023/09/29 09:49:47;;;;;;;10.38;4.70;;;;;;;;;;5016465;28;20489;-73
2023/09/29 09:52:23;;;;;;;8.15;3.97;;;;;;;;;;5017154;28;20089;-75
2023/09/29 09:54:52;;;;;;;7.70;3.60;;;;;;;;;;5016671;28;20045;-75
2023/09/29 09:57:30;;;;;;;9.25;4.93;;;;;;;;;;5016635;28;20501;-75
2023/09/29 09:59:56;;;;;;;6.38;3.92;;;;;;;;;;5016632;28;20045;-73
2023/09/29 10:02:22;;;;;;;9.82;3.72;;;;;;;;;;5016188;28;20101;-73
2023/09/29 10:04:49;;;;;;;8.32;3.90;;;;;;;;;;5016391;28;20056;-74
2023/09/29 10:07:15;;;;;;;5.32;3.65;;;;;;;;;;5016210;28;20032;-74
2023/09/29 10:09:46;;;;;;;5.32;3.25;;;;;;;;;;5016411;28;20108;-74
2023/09/29 10:12:25;;;;;;;6.90;3.45;;;;;;;;;;5016124;28;20038;-74
2023/09/29 10:14:52;;;;;;;5.03;3.60;;;;;;;;;;5016039;28;20026;-74
2023/09/29 10:17:18;;;;;;;5.35;3.70;;;;;;;;;;5016003;28;20026;-74
2023/09/29 10:19:45;;;;;;;8.07;3.58;;;;;;;;;;5015937;28;20485;-74
2023/09/29 10:22:21;;;;;;;9.50;3.45;;;;;;;;;;5016005;28;20053;-74
2023/09/29 10:24:47;;;;;;;7.85;3.47;;;;;;;;;;5014592;28;20029;-73
2023/09/29 10:27:13;;;;;;;6.18;3.20;;;;;;;;;;5014828;28;20030;-73
2023/09/29 10:29:39;;;;;;;7.00;2.78;;;;;;;;;;5015444;28;20038;-74
2023/09/29 10:32:10;;;;;;;4.15;3.00;;;;;;;;;;5015775;28;20033;-74
2023/09/29 10:34:36;;;;;;;5.97;2.65;;;;;;;;;;5016049;28;20124;-73
2023/09/29 10:37:02;;;;;;;4.70;3.22;;;;;;;;;;5014724;28;20030;-73
2023/09/29 10:39:29;;;;;;;5.15;3.15;;;;;;;;;;5014503;28;20036;-75
2023/09/29 10:42:14;;;;;;;5.55;2.60;;;;;;;;;;5015301;28;20022;-73
2023/09/29 10:44:51;;;;;;;7.45;3.03;;;;;;;;;;5015069;28;20025;-76
2023/09/29 10:47:16;;;;;;;9.02;2.78;;;;;;;;;;5014082;28;20069;-75
2023/09/29 10:49:46;;;;;;;7.25;2.80;;;;;;;;;;5015331;28;20515;-74
2023/09/29 10:52:19;;;;;;;8.93;2.50;;;;;;;;;;5015523;28;20455;-73
2023/09/29 10:54:44;;;;;;;5.97;2.40;;;;;;;;;;5014108;28;20400;-73
2023/09/29 10:57:09;;;;;;;9.55;2.78;;;;;;;;;;5015286;28;20108;-74
2023/09/29 10:59:45;;;;;;;5.95;2.30;;;;;;;;;;5013157;28;20159;-74
2023/09/29 11:02:11;;;;;;;5.40;2.50;;;;;;;;;;5015315;28;20022;-74
2023/09/29 11:04:37;;;;;;;4.57;2.40;;;;;;;;;;5013770;28;20044;-74
2023/09/29 11:07:02;;;;;;;4.82;2.70;;;;;;;;;;5014992;28;20083;-74
2023/09/29 11:09:31;;;;;;;3.17;2.67;;;;;;;;;;5014963;28;20030;-74
2023/09/29 11:11:57;;;;;;;9.05;2.88;;;;;;;;;;5014959;28;20271;-74
2023/09/29 11:14:22;;;;;;;7.80;2.80;;;;;;;;;;5016026;28;20080;-76
2023/09/29 11:16:55;;;;;;;10.88;3.10;;;;;;;;;;5015481;28;20435;-74
2023/09/29 11:19:20;;;;;;;10.57;3.08;;;;;;;;;;5014680;28;20033;-74
2023/09/29 11:21:46;;;;;;;6.60;2.60;;;;;;;;;;5014548;28;20026;-73
2023/09/29 11:24:13;;;;;;;5.13;2.70;;;;;;;;;;5014631;28;20352;-74
2023/09/29 11:26:46;;;;;;;5.53;2.67;;;;;;;;;;5011914;28;20165;-73
2023/09/29 11:29:25;;;;;;;3.90;2.30;;;;;;;;;;5013224;28;20034;-75
2023/09/29 11:31:51;;;;;;;6.75;2.78;;;;;;;;;;5012409;28;20465;-73
2023/09/29 11:34:16;;;;;;;4.28;2.50;;;;;;;;;;5013317;28;20046;-75
2023/09/29 11:36:43;;;;;;;7.28;2.60;;;;;;;;;;5014576;28;20507;-75
2023/09/29 11:39:10;;;;;;;8.40;2.85;;;;;;;;;;5014957;28;20022;-75
2023/09/29 11:41:36;;;;;;;95.53;16.80;;;;;;;;;;5012988;28;20105;-74
2023/09/29 11:44:01;;;;;;;6.82;3.00;;;;;;;;;;5012799;28;20103;-75
2023/09/29 11:46:26;;;;;;;92.80;5.68;;;;;;;;;;5014298;28;20468;-74
2023/09/29 11:48:53;;;;;;;5.55;2.30;;;;;;;;;;5013942;28;20028;-74
2023/09/29 11:51:19;;;;;;;6.07;2.40;;;;;;;;;;5010634;28;20481;-73
2023/09/29 11:53:44;;;;;;;8.32;2.28;;;;;;;;;;5012684;28;20080;-74
2023/09/29 11:56:09;;;;;;;8.20;2.47;;;;;;;;;;5013970;28;20076;-73
2023/09/29 11:58:35;;;;;;;6.57;2.10;;;;;;;;;;5011911;28;20274;-74
2023/09/29 12:01:01;;;;;;;7.80;2.47;;;;;;;;;;5013109;28;20432;-73
2023/09/29 12:03:27;;;;;;;8.85;2.50;;;;;;;;;;5014073;28;20021;-74
2023/09/29 12:05:53;;;;;;;10.85;2.65;;;;;;;;;;5014960;28;20095;-75
2023/09/29 12:08:19;;;;;;;4.40;2.40;;;;;;;;;;5014065;28;20548;-73
2023/09/29 12:10:44;;;;;;;5.95;2.60;;;;;;;;;;5011674;28;20026;-73
2023/09/29 12:13:12;;;;;;;4.05;2.58;;;;;;;;;;5013894;28;20028;-73
2023/09/29 12:15:37;;;;;;;5.90;2.50;;;;;;;;;;5013992;28;20029;-73
2023/09/29 12:18:03;;;;;;;3.33;2.30;;;;;;;;;;5012839;28;20018;-73
2023/09/29 12:20:28;;;;;;;7.70;2.70;;;;;;;;;;5013750;28;20061;-73
2023/09/29 12:22:59;;;;;;;4.07;3.00;;;;;;;;;;5013771;28;20424;-74
2023/09/29 12:25:24;;;;;;;4.70;2.75;;;;;;;;;;5011789;28;20139;-75
2023/09/29 12:27:49;;;;;;;4.10;2.63;;;;;;;;;;5012933;28;20493;-73
2023/09/29 12:30:15;;;;;;;4.32;2.70;;;;;;;;;;5013489;28;20267;-73
2023/09/29 12:32:44;;;;;;;4.88;2.67;;;;;;;;;;5013577;28;20022;-73
2023/09/29 12:35:12;;;;;;;5.38;2.33;;;;;;;;;;5012126;28;20396;-70
2023/09/29 12:37:38;;;;;;;4.47;2.60;;;;;;;;;;5012941;28;20068;-73
2023/09/29 12:40:05;;;;;;;6.38;2.30;;;;;;;;;;5013250;28;20030;-73
2023/09/29 12:42:31;;;;;;;2.92;2.10;;;;;;;;;;5013294;28;20029;-73
2023/09/29 12:44:56;;;;;;;5.82;2.15;;;;;;;;;;5013042;28;20026;-73
2023/09/29 12:47:22;;;;;;;7.78;2.47;;;;;;;;;;5011955;28;20038;-72
2023/09/29 12:49:47;;;;;;;4.93;2.63;;;;;;;;;;5013229;28;20025;-74
2023/09/29 12:52:13;;;;;;;9.50;2.93;;;;;;;;;;5013175;28;20266;-74
2023/09/29 12:54:39;;;;;;;5.22;2.30;;;;;;;;;;5013225;28;20267;-74
2023/09/29 12:57:05;;;;;;;4.53;2.20;;;;;;;;;;5013523;28;20534;-73
2023/09/29 12:59:36;;;;;;;4.72;2.40;;;;;;;;;;5013129;28;20025;-74
2023/09/29 13:02:04;;;;;;;9.55;2.40;;;;;;;;;;5013318;28;20489;-74
2023/09/29 13:04:30;;;;;;;4.68;2.40;;;;;;;;;;5011949;28;20032;-74
2023/09/29 13:06:55;;;;;;;7.43;2.58;;;;;;;;;;5013474;28;20112;-74
2023/09/29 13:09:21;;;;;;;7.10;2.63;;;;;;;;;;5013113;28;20034;-74
2023/09/29 13:11:50;;;;;;;10.17;2.53;;;;;;;;;;5013225;28;20072;-78
2023/09/29 13:14:16;;;;;;;3.35;2.42;;;;;;;;;;5013894;28;20259;-77
2023/09/29 13:16:41;;;;;;;10.30;2.70;;;;;;;;;;5013732;28;20048;-77
2023/09/29 13:19:06;;;;;;;4.28;2.75;;;;;;;;;;5013853;28;20112;-77
2023/09/29 13:21:33;;;;;;;8.70;2.70;;;;;;;;;;5013519;28;20061;-77
2023/09/29 13:24:02;;;;;;;11.75;4.10;;;;;;;;;;5017587;28;20052;-73
2023/09/29 13:26:28;;;;;;;4.70;2.72;;;;;;;;;;5016880;28;20496;-75
2023/09/29 13:28:53;;;;;;;7.28;3.58;;;;;;;;;;5016889;28;20029;-74
2023/09/29 13:31:18;;;;;;;15.48;5.07;;;;;;;;;;5016714;28;20041;-74
2023/09/29 13:33:44;;;;;;;8.43;2.80;;;;;;;;;;5015534;28;20507;-73
2023/09/29 13:36:09;;;;;;;9.25;3.17;;;;;;;;;;5016785;28;20261;-74
2023/09/29 13:38:34;;;;;;;6.45;3.20;;;;;;;;;;5016682;28;20036;-73
2023/09/29 13:41:00;;;;;;;16.75;4.32;;;;;;;;;;5016661;28;20029;-73
2023/09/29 13:43:25;;;;;;;10.82;3.80;;;;;;;;;;5015394;28;20025;-73
2023/09/29 13:45:51;;;;;;;7.03;2.70;;;;;;;;;;5015256;28;20022;-74
2023/09/29 13:48:18;;;;;;;6.82;3.38;;;;;;;;;;5016469;28;20033;-73
2023/09/29 13:50:44;;;;;;;6.55;2.75;;;;;;;;;;5015018;28;20022;-73
2023/09/29 13:53:09;;;;;;;6.03;2.63;;;;;;;;;;5016433;28;20109;-75
2023/09/29 13:55:34;;;;;;;8.02;3.00;;;;;;;;;;5015037;28;20025;-73
2023/09/29 13:58:00;;;;;;;9.40;3.50;;;;;;;;;;5016352;28;20030;-74
2023/09/29 14:00:26;;;;;;;6.68;3.50;;;;;;;;;;5016048;28;20476;-73
2023/09/29 14:02:52;;;;;;;12.70;3.45;;;;;;;;;;5014941;28;20054;-74
2023/09/29 14:05:17;;;;;;;8.27;3.35;;;;;;;;;;5014989;28;20105;-73
2023/09/29 14:07:42;;;;;;;13.48;4.03;;;;;;;;;;5016058;28;20030;-73
2023/09/29 14:10:08;;;;;;;8.23;3.60;;;;;;;;;;5016008;28;20030;-73
2023/09/29 14:12:37;;;;;;;11.73;3.97;;;;;;;;;;5014842;28;20461;-73
2023/09/29 14:15:03;;;;;;;9.25;4.05;;;;;;;;;;5015912;28;20101;-73
2023/09/29 14:17:29;;;;;;;10.73;4.03;;;;;;;;;;5015856;28;20104;-74
2023/09/29 14:19:54;;;;;;;9.75;5.00;;;;;;;;;;5013752;28;20113;-73
2023/09/29 14:22:19;;;;;;;8.73;4.00;;;;;;;;;;5014787;28;20025;-74
2023/09/29 14:24:45;;;;;;;9.05;4.20;;;;;;;;;;5015499;28;20022;-74
2023/09/29 14:27:10;;;;;;;10.48;4.60;;;;;;;;;;5015686;28;20476;-74
2023/09/29 14:29:35;;;;;;;13.02;5.22;;;;;;;;;;5015323;28;20030;-73